Time;durP1;ratioP1;P1;durP2;ratioP2;P2;SDS_P1;SDS_P2;PMS_P1;PMS_P2;Temp;Humidity;BMP_temperature;BMP_pressure;BME280_temperature;BME280_humidity;BME280_pressure;Samples;Min_cycle;Max_cycle;Signal;HPM_P1;HPM_P2
2020/12/01 00:00:22;;;;;;;67.60;26.05;;;;;;;-0.96;73.56;100783.56;5092802;28;20102;-68
2020/12/01 00:02:48;;;;;;;63.50;26.33;;;;;;;-0.96;73.68;100776.69;5095404;28;20050;-67
2020/12/01 00:05:17;;;;;;;61.88;24.23;;;;;;;-0.94;73.42;100779.31;5094679;28;20050;-68
2020/12/01 00:07:44;;;;;;;55.67;24.88;;;;;;;-0.97;73.59;100780.13;5095077;28;20048;-69
2020/12/01 00:10:12;;;;;;;61.30;24.90;;;;;;;-0.97;73.88;100776.69;5094924;28;20070;-69
2020/12/01 00:12:39;;;;;;;55.58;22.92;;;;;;;-0.96;73.82;100780.97;5095017;28;20155;-68
2020/12/01 00:15:05;;;;;;;55.05;22.92;;;;;;;-0.98;73.89;100783.53;5094647;28;20410;-70
2020/12/01 00:17:31;;;;;;;71.45;26.42;;;;;;;-0.97;73.92;100780.13;5095053;28;20079;-68
2020/12/01 00:19:57;;;;;;;65.38;26.80;;;;;;;-0.96;73.96;100776.69;5094746;28;20048;-68
2020/12/01 00:22:23;;;;;;;62.53;26.60;;;;;;;-0.95;74.21;100775.84;5094804;28;20082;-68
2020/12/01 00:24:50;;;;;;;72.43;25.45;;;;;;;-0.93;73.94;100771.59;5094761;28;20101;-68
2020/12/01 00:27:16;;;;;;;67.90;27.48;;;;;;;-0.94;73.96;100769.88;5094795;28;20048;-69
2020/12/01 00:29:42;;;;;;;67.40;27.35;;;;;;;-0.94;74.20;100775.00;5088094;28;20055;-69
2020/12/01 00:32:08;;;;;;;71.55;28.50;;;;;;;-0.88;74.04;100773.38;5073981;28;20045;-70
2020/12/01 00:34:34;;;;;;;71.25;25.83;;;;;;;-0.87;73.99;100765.69;5079393;28;20040;-69
2020/12/01 00:37:03;;;;;;;68.38;26.65;;;;;;;-0.87;74.00;100775.09;5094550;28;20131;-70
2020/12/01 00:39:29;;;;;;;64.50;26.42;;;;;;;-0.85;73.85;100778.56;5093948;28;20139;-69
2020/12/01 00:41:56;;;;;;;74.40;28.05;;;;;;;-0.85;74.09;100784.59;5094504;28;20051;-69
2020/12/01 00:44:22;;;;;;;68.57;26.95;;;;;;;-0.88;74.26;100787.13;5094410;28;20054;-69
2020/12/01 00:46:48;;;;;;;76.15;27.55;;;;;;;-0.88;74.30;100781.09;5094295;28;20492;-69
2020/12/01 00:49:16;;;;;;;62.95;25.90;;;;;;;-0.87;74.25;100794.00;5093898;28;20044;-68
2020/12/01 00:51:42;;;;;;;63.90;27.30;;;;;;;-0.87;74.23;100793.13;5094250;28;20399;-69
2020/12/01 00:54:08;;;;;;;65.45;27.05;;;;;;;-0.90;74.28;100788.78;5094220;28;20048;-69
2020/12/01 00:56:34;;;;;;;68.28;26.75;;;;;;;-0.90;74.32;100793.06;5094238;28;20044;-68
2020/12/01 00:59:01;;;;;;;69.60;26.50;;;;;;;-0.92;74.33;100788.78;5093649;28;20059;-68
2020/12/01 01:01:30;;;;;;;47.33;19.33;;;;;;;-0.90;74.16;100783.66;5094197;28;20055;-69
2020/12/01 01:03:56;;;;;;;66.70;25.45;;;;;;;-0.95;74.36;100778.44;5093840;28;20434;-69
2020/12/01 01:06:22;;;;;;;68.28;25.30;;;;;;;-0.94;74.34;100779.31;5094102;28;20052;-69
2020/12/01 01:08:49;;;;;;;68.65;27.42;;;;;;;-0.95;74.34;100782.72;5094268;28;20054;-70
2020/12/01 01:11:15;;;;;;;61.00;25.42;;;;;;;-1.02;74.30;100781.75;5093856;28;20141;-68
2020/12/01 01:13:41;;;;;;;65.63;26.42;;;;;;;-1.03;74.40;100780.03;5093738;28;20058;-69
2020/12/01 01:16:08;;;;;;;73.25;26.25;;;;;;;-1.05;74.48;100773.94;5093316;28;20047;-68
2020/12/01 01:18:35;;;;;;;60.20;22.58;;;;;;;-1.07;74.61;100767.91;5093567;28;20137;-68
2020/12/01 01:21:01;;;;;;;71.70;27.00;;;;;;;-1.08;74.64;100771.34;5093690;28;20131;-69
2020/12/01 01:23:27;;;;;;;71.80;28.20;;;;;;;-1.08;74.67;100776.47;5093971;28;20130;-69
2020/12/01 01:25:53;;;;;;;68.28;24.08;;;;;;;-1.04;74.48;100769.66;5093312;28;20483;-68
2020/12/01 01:28:19;;;;;;;61.10;22.25;;;;;;;-0.99;74.62;100770.66;5093689;28;20052;-68
2020/12/01 01:30:45;;;;;;;63.97;25.52;;;;;;;-0.98;74.57;100768.09;5093146;28;20544;-69
2020/12/01 01:33:13;;;;;;;75.18;25.45;;;;;;;-0.97;74.32;100754.38;5093493;28;20463;-69
2020/12/01 01:35:40;;;;;;;70.90;26.50;;;;;;;-0.96;74.65;100761.25;5093347;28;20044;-67
2020/12/01 01:38:07;;;;;;;61.65;21.73;;;;;;;-0.97;74.77;100749.22;5093375;28;20131;-68
2020/12/01 01:40:34;;;;;;;64.22;24.75;;;;;;;-0.95;74.68;100760.41;5093268;28;20052;-68
2020/12/01 01:43:01;;;;;;;71.53;26.13;;;;;;;-0.93;74.54;100751.00;5092478;28;20059;-69
2020/12/01 01:45:42;;;;;;;60.55;22.17;;;;;;;-0.90;74.91;100749.31;5092824;28;20491;-68
2020/12/01 01:48:15;;;;;;;57.47;21.40;;;;;;;-0.86;74.58;100751.97;5093354;28;20045;-68
2020/12/01 01:50:46;;;;;;;53.30;21.45;;;;;;;-0.81;74.53;100746.91;5093128;28;20051;-69
2020/12/01 01:53:12;;;;;;;46.22;18.98;;;;;;;-0.81;74.60;100741.75;5093184;28;20123;-68
2020/12/01 01:55:41;;;;;;;62.67;23.98;;;;;;;-0.84;74.64;100737.41;5093738;28;20044;-69
2020/12/01 01:58:07;;;;;;;44.55;18.38;;;;;;;-0.82;74.73;100733.19;5092901;28;20420;-69
2020/12/01 02:00:52;;;;;;;53.63;20.48;;;;;;;-0.82;74.61;100732.31;5093227;28;20044;-68
2020/12/01 02:03:30;;;;;;;42.83;15.88;;;;;;;-0.86;74.82;100727.94;5093330;28;20058;-69
2020/12/01 02:05:57;;;;;;;53.28;20.67;;;;;;;-0.87;74.82;100718.47;5092813;28;20048;-69
2020/12/01 02:08:24;;;;;;;43.67;17.38;;;;;;;-0.83;74.64;100722.81;5092635;28;20135;-68
2020/12/01 02:10:51;;;;;;;62.20;23.13;;;;;;;-0.77;74.86;100720.38;5092571;28;20051;-69
2020/12/01 02:13:25;;;;;;;51.75;19.90;;;;;;;-0.72;74.54;100718.72;5092962;28;20054;-68
2020/12/01 02:15:51;;;;;;;52.63;19.88;;;;;;;-0.76;74.82;100706.66;5092493;28;20060;-68
2020/12/01 02:18:29;;;;;;;51.10;21.33;;;;;;;-0.79;74.97;100720.34;5092731;28;20089;-67
2020/12/01 02:20:55;;;;;;;54.47;23.17;;;;;;;-0.77;74.76;100717.78;5091962;28;20048;-68
2020/12/01 02:23:21;;;;;;;60.88;20.95;;;;;;;-0.78;74.80;100716.06;5092435;28;20054;-69
2020/12/01 02:25:47;;;;;;;49.40;20.73;;;;;;;-0.74;75.01;100712.69;5092083;28;20052;-68
2020/12/01 02:28:14;;;;;;;51.88;20.02;;;;;;;-0.71;74.90;100710.16;5092236;28;20479;-67
2020/12/01 02:30:40;;;;;;;40.90;18.42;;;;;;;-0.72;75.02;100708.41;5092273;28;20054;-67
2020/12/01 02:33:06;;;;;;;62.00;23.15;;;;;;;-0.73;74.79;100702.41;5092713;28;20058;-69
2020/12/01 02:35:32;;;;;;;59.85;22.65;;;;;;;-0.74;74.95;100703.25;5092298;28;20054;-69
2020/12/01 02:37:59;;;;;;;52.60;22.48;;;;;;;-0.75;75.22;100691.22;5092456;28;20044;-68
2020/12/01 02:40:25;;;;;;;47.65;19.10;;;;;;;-0.75;74.88;100695.50;5091659;28;20066;-68
2020/12/01 02:42:52;;;;;;;55.67;23.70;;;;;;;-0.75;74.95;100693.81;5092414;28;20060;-68
2020/12/01 02:45:19;;;;;;;49.28;19.73;;;;;;;-0.72;75.08;100693.84;5092003;28;20044;-68
2020/12/01 02:47:45;;;;;;;66.50;23.92;;;;;;;-0.70;75.14;100693.84;5092388;28;20044;-68
2020/12/01 02:50:12;;;;;;;63.45;25.52;;;;;;;-0.68;75.07;100689.59;5092309;28;20379;-69
2020/12/01 02:52:38;;;;;;;70.45;25.15;;;;;;;-0.66;74.97;100687.91;5091998;28;20536;-68
2020/12/01 02:55:05;;;;;;;60.20;24.63;;;;;;;-0.63;75.10;100685.38;5082440;28;20055;-69
2020/12/01 02:57:31;;;;;;;68.18;26.75;;;;;;;-0.61;75.27;100686.28;5071589;28;20075;-67
2020/12/01 02:59:57;;;;;;;58.70;21.98;;;;;;;-0.56;75.08;100689.78;5071462;28;20052;-68
2020/12/01 03:02:24;;;;;;;68.13;25.05;;;;;;;-0.54;75.24;100680.34;5071508;28;20070;-68
2020/12/01 03:04:50;;;;;;;74.15;27.05;;;;;;;-0.50;74.99;100684.69;5078748;28;20048;-68
2020/12/01 03:07:16;;;;;;;62.63;26.40;;;;;;;-0.49;75.11;100672.69;5091907;28;20044;-69
2020/12/01 03:09:42;;;;;;;71.82;28.20;;;;;;;-0.50;75.00;100674.41;5091835;28;20127;-68
2020/12/01 03:12:08;;;;;;;72.93;26.00;;;;;;;-0.49;74.95;100670.97;5091961;28;20126;-69
2020/12/01 03:14:34;;;;;;;69.95;27.70;;;;;;;-0.48;75.06;100667.56;5091561;28;20511;-69
2020/12/01 03:17:00;;;;;;;60.50;24.23;;;;;;;-0.48;74.90;100664.97;5091601;28;20396;-69
2020/12/01 03:19:27;;;;;;;70.60;24.08;;;;;;;-0.49;75.12;100662.38;5091392;28;20468;-69
2020/12/01 03:21:53;;;;;;;72.10;26.05;;;;;;;-0.51;75.00;100664.94;5091797;28;20059;-68
2020/12/01 03:24:19;;;;;;;70.43;25.60;;;;;;;-0.50;74.78;100664.09;5088817;28;21341;-68
2020/12/01 03:26:45;;;;;;;62.92;26.67;;;;;;;-0.51;74.91;100656.34;5071498;28;20599;-68
2020/12/01 03:29:12;;;;;;;65.28;26.10;;;;;;;-0.52;74.60;100660.63;5073430;28;20052;-67
2020/12/01 03:31:38;;;;;;;64.75;24.98;;;;;;;-0.54;74.71;100667.47;5091787;28;20158;-68
2020/12/01 03:34:04;;;;;;;43.42;18.30;;;;;;;-0.60;75.02;100659.69;5091905;28;20405;-68
2020/12/01 03:36:32;;;;;;;60.25;24.33;;;;;;;-0.64;74.93;100655.31;5091715;28;20058;-68
2020/12/01 03:38:58;;;;;;;20.55;9.20;;;;;;;-0.68;74.83;100658.69;5091697;28;20302;-68
2020/12/01 03:41:24;;;;;;;63.33;27.15;;;;;;;-0.70;74.80;100658.69;5091726;28;20048;-69
2020/12/01 03:43:50;;;;;;;58.50;22.40;;;;;;;-0.71;74.81;100664.69;5084781;28;20403;-68
2020/12/01 03:46:18;;;;;;;58.85;24.33;;;;;;;-0.72;74.96;100674.94;5090339;28;20054;-68
2020/12/01 03:48:44;;;;;;;55.10;22.73;;;;;;;-0.73;74.89;100671.50;5091742;28;20526;-68
2020/12/01 03:51:10;;;;;;;58.50;24.23;;;;;;;-0.75;74.96;100669.78;5091282;28;20139;-67
2020/12/01 03:53:37;;;;;;;61.70;26.13;;;;;;;-0.78;75.13;100662.88;5091868;28;20055;-68
2020/12/01 03:56:03;;;;;;;57.00;25.98;;;;;;;-0.77;74.84;100667.16;5073610;28;20045;-68
2020/12/01 03:58:29;;;;;;;60.85;25.67;;;;;;;-0.77;74.79;100668.88;5071120;28;20053;-68
2020/12/01 04:00:55;;;;;;;58.25;23.30;;;;;;;-0.77;74.67;100668.88;5070799;28;20048;-68
2020/12/01 04:03:21;;;;;;;64.05;27.60;;;;;;;-0.79;75.03;100671.44;5071636;28;20048;-69
2020/12/01 04:05:47;;;;;;;49.30;21.48;;;;;;;-0.76;74.73;100670.59;5087618;28;20044;-67
2020/12/01 04:08:15;;;;;;;66.90;26.77;;;;;;;-0.76;74.71;100675.75;5094990;28;20139;-68
2020/12/01 04:10:42;;;;;;;64.57;24.17;;;;;;;-0.75;74.64;100668.06;5094964;28;20130;-67
2020/12/01 04:13:08;;;;;;;61.63;27.75;;;;;;;-0.75;74.65;100668.06;5095224;28;20070;-68
2020/12/01 04:15:35;;;;;;;65.45;25.77;;;;;;;-0.73;74.56;100670.66;5094815;28;20044;-68
2020/12/01 04:18:01;;;;;;;63.65;26.45;;;;;;;-0.71;74.40;100658.66;5094988;28;20058;-68
2020/12/01 04:20:27;;;;;;;65.47;26.45;;;;;;;-0.69;74.46;100667.28;5094605;28;20059;-68
2020/12/01 04:22:53;;;;;;;60.17;25.33;;;;;;;-0.71;74.56;100658.66;5095142;28;20087;-68
2020/12/01 04:25:22;;;;;;;60.55;24.50;;;;;;;-0.72;74.56;100654.34;5094832;28;20131;-68
2020/12/01 04:27:50;;;;;;;66.55;25.20;;;;;;;-0.70;74.16;100661.25;5094943;28;20054;-68
2020/12/01 04:30:17;;;;;;;39.72;16.30;;;;;;;-0.68;74.37;100658.69;5094552;28;20075;-68
2020/12/01 04:32:43;;;;;;;33.75;15.23;;;;;;;-0.68;74.26;100658.69;5094647;28;20054;-68
2020/12/01 04:35:10;;;;;;;65.13;25.50;;;;;;;-0.67;74.15;100655.28;5084408;28;20056;-68
2020/12/01 04:37:36;;;;;;;65.45;26.33;;;;;;;-0.68;74.23;100653.53;5074243;28;20044;-68
2020/12/01 04:40:04;;;;;;;66.10;26.75;;;;;;;-0.70;74.24;100648.38;5082492;28;20418;-68
2020/12/01 04:42:31;;;;;;;62.08;26.60;;;;;;;-0.69;74.14;100656.97;5094494;28;20044;-68
2020/12/01 04:45:04;;;;;;;58.38;25.95;;;;;;;-0.70;74.11;100656.09;5094123;28;20048;-68
2020/12/01 04:47:35;;;;;;;59.78;24.35;;;;;;;-0.71;73.98;100654.38;5094242;28;20127;-68
2020/12/01 04:50:07;;;;;;;67.45;26.45;;;;;;;-0.71;74.16;100656.09;5094139;28;20130;-68
2020/12/01 04:52:56;;;;;;;62.70;27.33;;;;;;;-0.74;74.14;100654.34;5094050;28;20051;-69
2020/12/01 04:55:58;;;;;;;58.08;26.08;;;;;;;-0.72;73.96;100651.78;5093500;28;20138;-68
2020/12/01 04:58:33;;;;;;;;;;;;;;;-0.68;73.87;100643.25;5094267;28;20063;-68
2020/12/01 05:01:09;;;;;;;45.03;19.08;;;;;;;-0.82;73.80;100644.78;5093842;28;19927;-68
2020/12/01 05:03:52;;;;;;;64.57;27.35;;;;;;;-0.83;74.11;100646.50;5094128;28;20376;-69
2020/12/01 05:06:40;;;;;;;55.47;24.98;;;;;;;-0.81;73.97;100643.94;5093478;28;20503;-69
2020/12/01 05:09:12;;;;;;;64.60;26.33;;;;;;;-0.81;74.02;100647.38;5092903;28;20079;-67
2020/12/01 05:11:45;;;;;;;65.03;25.75;;;;;;;-0.78;74.02;100646.56;5073716;28;20053;-69
2020/12/01 05:14:19;;;;;;;57.63;23.55;;;;;;;-0.79;73.88;100650.84;5075212;28;20045;-69
2020/12/01 05:17:15;;;;;;;54.30;23.70;;;;;;;-0.78;74.01;100646.56;5093586;28;20043;-68
2020/12/01 05:19:44;;;;;;;55.60;25.33;;;;;;;-0.78;73.78;100642.28;5093046;28;20140;-68
2020/12/01 05:22:11;;;;;;;53.70;23.33;;;;;;;-0.78;73.76;100641.41;5093791;28;20051;-68
2020/12/01 05:24:39;;;;;;;53.72;22.02;;;;;;;-0.79;73.86;100642.25;5087677;28;20051;-68
2020/12/01 05:27:17;;;;;;;58.20;25.48;;;;;;;-0.79;73.66;100640.53;5073182;28;20048;-68
2020/12/01 05:29:43;;;;;;;57.20;25.70;;;;;;;-0.77;73.53;100638.00;5073306;28;20049;-67
2020/12/01 05:32:10;;;;;;;57.00;19.15;;;;;;;-0.79;73.55;100647.41;5072869;28;20478;-67
2020/12/01 05:34:36;;;;;;;55.22;25.10;;;;;;;-0.80;73.69;100648.25;5078137;28;20509;-68
2020/12/01 05:37:06;;;;;;;26.80;13.60;;;;;;;-0.82;73.72;100655.09;5092972;28;20044;-68
2020/12/01 05:39:34;;;;;;;55.30;24.50;;;;;;;-0.82;73.46;100653.38;5093229;28;20082;-69
2020/12/01 05:42:02;;;;;;;63.10;25.35;;;;;;;-0.82;73.53;100650.81;5093011;28;20368;-68
2020/12/01 05:44:31;;;;;;;52.83;24.67;;;;;;;-0.83;73.70;100654.22;5088853;28;20040;-68
2020/12/01 05:47:02;;;;;;;36.42;14.40;;;;;;;-0.82;73.51;100655.09;5012756;28;20065;-69
2020/12/01 05:49:36;;;;;;;54.45;23.02;;;;;;;-0.83;73.43;100649.06;5056902;28;20048;-69
2020/12/01 05:52:04;;;;;;;59.20;24.33;;;;;;;-0.82;73.34;100655.09;5065522;28;20070;-70
2020/12/01 05:54:35;;;;;;;54.25;24.73;;;;;;;-0.83;73.32;100649.06;5070700;28;20048;-70
2020/12/01 05:57:02;;;;;;;52.45;23.02;;;;;;;-0.81;73.18;100659.38;5070546;28;20052;-68
2020/12/01 05:59:28;;;;;;;54.25;23.13;;;;;;;-0.83;73.32;100654.22;5071358;28;20048;-68
2020/12/01 06:02:01;;;;;;;54.33;24.60;;;;;;;-0.83;73.43;100661.06;5072483;28;20049;-68
2020/12/01 06:04:27;;;;;;;57.83;24.25;;;;;;;-0.82;73.34;100667.97;5065397;28;20049;-68
2020/12/01 06:07:19;;;;;;;55.40;24.38;;;;;;;-0.84;73.23;100667.03;5072109;28;20135;-68
2020/12/01 06:10:04;;;;;;;57.90;23.00;;;;;;;-0.86;73.36;100659.31;5068445;28;20052;-69
2020/12/01 06:12:51;;;;;;;50.13;20.45;;;;;;;-0.87;73.30;100656.72;5070411;28;20396;-69
2020/12/01 06:15:19;;;;;;;45.97;20.95;;;;;;;-0.89;73.15;100655.81;5066941;28;20049;-69
2020/12/01 06:17:52;;;;;;;51.63;23.00;;;;;;;-0.92;73.20;100660.09;5067961;28;20055;-69
2020/12/01 06:20:24;;;;;;;46.60;19.48;;;;;;;-0.93;73.22;100653.22;5061323;28;20056;-69
2020/12/01 06:23:40;;;;;;;56.58;23.00;;;;;;;-0.96;73.36;100663.47;5070949;28;20045;-68
2020/12/01 06:26:38;;;;;;;60.47;24.27;;;;;;;-0.95;73.23;100672.91;5071345;28;20135;-69
2020/12/01 06:29:26;;;;;;;53.75;23.73;;;;;;;-0.97;73.36;100677.19;5071250;28;20055;-69
2020/12/01 06:32:25;;;;;;;49.95;21.73;;;;;;;-0.97;73.13;100674.59;5071948;28;20428;-69
2020/12/01 06:35:08;;;;;;;54.38;20.25;;;;;;;-0.96;73.06;100673.75;5032021;28;20059;-70
2020/12/01 06:37:45;;;;;;;60.08;23.83;;;;;;;-0.96;72.96;100668.59;5051848;28;20041;-70
2020/12/01 06:40:28;;;;;;;51.60;23.73;;;;;;;-0.98;72.96;100675.44;5061647;28;20049;-70
2020/12/01 06:43:02;;;;;;;45.22;21.65;;;;;;;-0.99;73.04;100676.28;5072381;28;20051;-69
2020/12/01 06:45:33;;;;;;;54.17;21.42;;;;;;;-0.97;73.22;100672.03;5071794;28;20136;-69
2020/12/01 06:48:05;;;;;;;52.88;24.77;;;;;;;-0.96;72.94;100678.91;5072274;28;20063;-69
2020/12/01 06:50:31;;;;;;;42.50;18.45;;;;;;;-0.95;72.87;100683.22;5071730;28;20070;-69
2020/12/01 06:53:00;;;;;;;55.88;21.95;;;;;;;-0.95;72.78;100674.63;5071852;28;20143;-69
2020/12/01 06:55:52;;;;;;;46.65;24.60;;;;;;;-0.93;72.83;100678.09;5071522;28;20412;-70
2020/12/01 06:58:34;;;;;;;53.10;21.48;;;;;;;-0.88;72.68;100681.59;5071486;28;20058;-70
2020/12/01 07:01:08;;;;;;;51.85;22.90;;;;;;;-0.88;72.74;100684.16;5071289;28;20048;-69
2020/12/01 07:03:34;;;;;;;51.63;21.30;;;;;;;-0.84;72.62;100687.63;5071996;28;20498;-70
2020/12/01 07:06:13;;;;;;;51.17;21.02;;;;;;;-0.83;72.54;100691.94;5071548;28;20051;-69
2020/12/01 07:08:39;;;;;;;47.85;21.25;;;;;;;-0.79;72.25;100691.16;5071919;28;20581;-69
2020/12/01 07:11:12;;;;;;;49.35;22.20;;;;;;;-0.80;72.56;100702.31;5071142;28;20365;-69
2020/12/01 07:13:45;;;;;;;48.03;21.88;;;;;;;-0.79;72.57;100694.59;5071926;28;20131;-70
2020/12/01 07:16:23;;;;;;;49.65;23.50;;;;;;;-0.76;72.32;100692.06;5071401;28;20049;-69
2020/12/01 07:18:53;;;;;;;43.10;19.08;;;;;;;-0.73;72.34;100707.56;5071920;28;20140;-69
2020/12/01 07:21:24;;;;;;;45.53;20.42;;;;;;;-0.71;72.24;100699.84;5071387;28;20143;-69
2020/12/01 07:23:58;;;;;;;55.45;23.83;;;;;;;-0.67;72.35;100694.75;5072009;28;20049;-70
2020/12/01 07:26:39;;;;;;;49.38;22.92;;;;;;;-0.65;72.28;100693.06;5071307;28;20072;-69
2020/12/01 07:29:21;;;;;;;49.13;21.40;;;;;;;-0.60;72.33;100700.88;5071582;28;20135;-70
2020/12/01 07:31:48;;;;;;;52.65;23.65;;;;;;;-0.53;71.87;100705.28;5071613;28;20044;-71
2020/12/01 07:34:29;;;;;;;56.60;23.92;;;;;;;-0.50;72.00;100704.44;5071852;28;20422;-70
2020/12/01 07:37:15;;;;;;;48.10;21.48;;;;;;;-0.44;71.80;100705.38;5071625;28;20106;-69
2020/12/01 07:39:52;;;;;;;56.17;25.38;;;;;;;-0.42;71.72;100708.84;5071575;28;20053;-70
2020/12/01 07:42:27;;;;;;;47.60;21.20;;;;;;;-0.37;72.03;100717.50;5074954;28;20499;-70
2020/12/01 07:44:56;;;;;;;52.88;22.95;;;;;;;-0.29;71.64;100709.88;5067109;28;20491;-71
2020/12/01 07:47:25;;;;;;;33.95;14.90;;;;;;;-0.24;71.41;100715.09;5075197;28;20056;-70
2020/12/01 07:50:02;;;;;;;52.65;21.67;;;;;;;-0.20;71.75;100704.00;5074866;28;20060;-70
2020/12/01 07:52:33;;;;;;;54.92;23.23;;;;;;;-0.14;71.44;100714.38;5075277;28;20057;-70
2020/12/01 07:55:04;;;;;;;50.20;23.13;;;;;;;-0.10;71.39;100721.28;5074611;28;20087;-71
2020/12/01 07:57:32;;;;;;;46.50;24.35;;;;;;;-0.03;71.25;100728.22;5074889;28;20131;-71
2020/12/01 08:00:00;;;;;;;48.00;22.33;;;;;;;0.05;71.30;100725.78;5074616;28;20401;-71
2020/12/01 08:02:29;;;;;;;48.03;22.48;;;;;;;0.15;71.21;100730.16;5074964;28;20082;-71
2020/12/01 08:05:05;;;;;;;49.55;24.27;;;;;;;0.22;70.87;100735.44;5074797;28;20040;-71
2020/12/01 08:07:32;;;;;;;48.17;21.95;;;;;;;0.32;70.49;100730.38;5066035;28;20059;-70
2020/12/01 08:10:06;;;;;;;44.90;20.88;;;;;;;0.37;70.60;100726.97;5062890;28;20127;-70
2020/12/01 08:12:40;;;;;;;53.83;24.08;;;;;;;0.45;70.53;100730.53;5054917;28;20081;-71
2020/12/01 08:15:14;;;;;;;49.63;24.63;;;;;;;0.55;69.91;100726.31;5071790;28;20127;-69
2020/12/01 08:17:42;;;;;;;51.00;23.38;;;;;;;0.63;70.04;100727.25;5074806;28;20148;-70
2020/12/01 08:20:11;;;;;;;49.08;21.23;;;;;;;0.73;69.80;100723.91;5074390;28;20056;-70
2020/12/01 08:22:40;;;;;;;46.85;22.73;;;;;;;0.84;69.31;100724.00;5074618;28;20056;-68
2020/12/01 08:25:12;;;;;;;52.17;23.98;;;;;;;0.94;69.50;100719.78;5074622;28;20080;-71
2020/12/01 08:27:44;;;;;;;43.70;22.10;;;;;;;1.08;68.85;100723.34;5066171;28;20084;-71
2020/12/01 08:30:22;;;;;;;41.50;20.40;;;;;;;1.23;68.84;100715.69;5063159;28;20152;-72
2020/12/01 08:32:56;;;;;;;47.13;23.63;;;;;;;1.43;68.38;100719.25;5073737;28;20056;-75
2020/12/01 08:35:31;;;;;;;50.75;21.80;;;;;;;1.52;68.24;100721.91;5072996;28;20075;-73
2020/12/01 08:38:06;;;;;;;44.78;20.30;;;;;;;1.67;67.67;100720.28;5073459;28;20052;-75
2020/12/01 08:40:42;;;;;;;34.15;15.85;;;;;;;1.78;67.55;100723.78;5072125;28;20491;-73
2020/12/01 08:43:28;;;;;;;46.10;21.98;;;;;;;1.94;67.48;100722.13;5073193;28;20353;-73
2020/12/01 08:46:08;;;;;;;54.85;25.77;;;;;;;2.28;66.63;100723.09;5059065;28;20037;-67
2020/12/01 08:48:45;;;;;;;45.60;22.83;;;;;;;2.44;66.37;100719.69;5068966;28;20041;-68
2020/12/01 08:51:27;;;;;;;51.83;24.85;;;;;;;2.64;66.03;100718.00;5062136;28;20090;-69
2020/12/01 08:54:04;;;;;;;39.03;19.45;;;;;;;2.88;65.51;100718.88;5052325;28;20045;-68
2020/12/01 08:56:49;;;;;;;40.38;21.05;;;;;;;2.90;64.88;100720.59;5059559;28;20044;-68
2020/12/01 08:59:23;;;;;;;48.30;22.67;;;;;;;3.01;64.53;100723.22;5067359;28;20431;-68
2020/12/01 09:01:54;;;;;;;44.35;18.48;;;;;;;3.24;63.84;100721.47;5065084;28;20445;-67
2020/12/01 09:04:23;;;;;;;29.92;14.88;;;;;;;3.45;63.24;100724.91;5065393;28;20048;-71
2020/12/01 09:06:52;;;;;;;39.90;20.50;;;;;;;3.53;63.01;100723.16;5064774;28;20048;-72
2020/12/01 09:09:23;;;;;;;39.25;20.85;;;;;;;3.78;62.50;100731.75;5064226;28;20055;-74
2020/12/01 09:14:48;;;;;;;44.78;21.55;;;;;;;3.95;61.44;100728.22;5056083;28;20044;-72
2020/12/01 09:17:24;;;;;;;41.75;19.58;;;;;;;4.01;61.25;100729.06;5061829;28;20111;-72
2020/12/01 09:20:01;;;;;;;39.08;19.40;;;;;;;4.16;61.16;100732.44;5067662;28;20080;-72
2020/12/01 09:22:28;;;;;;;42.83;19.80;;;;;;;4.17;60.34;100738.53;5066104;28;20127;-71
2020/12/01 09:25:21;;;;;;;39.85;18.35;;;;;;;4.02;60.07;100739.44;5058314;28;20072;-73
2020/12/01 09:27:49;;;;;;;40.70;20.80;;;;;;;3.91;60.52;100734.28;5047921;28;20049;-73
2020/12/01 09:30:25;;;;;;;33.28;16.50;;;;;;;4.11;60.49;100728.16;5062520;28;20462;-73
2020/12/01 09:32:53;;;;;;;39.05;21.00;;;;;;;4.41;59.85;100729.75;5071931;28;20145;-73
2020/12/01 09:35:19;;;;;;;44.42;23.15;;;;;;;4.48;59.50;100719.31;5071618;28;20139;-72
2020/12/01 09:37:45;;;;;;;42.17;20.60;;;;;;;4.68;59.14;100720.91;5072049;28;20068;-72
2020/12/01 09:40:11;;;;;;;44.28;20.20;;;;;;;4.88;58.57;100719.03;5071829;28;20048;-72
2020/12/01 09:42:38;;;;;;;40.30;19.77;;;;;;;4.97;57.90;100716.34;5071712;28;20052;-73
2020/12/01 09:45:11;;;;;;;41.63;21.00;;;;;;;4.96;57.79;100717.22;5071354;28;20075;-72
2020/12/01 09:47:41;;;;;;;40.40;20.25;;;;;;;4.95;57.11;100710.31;5071993;28;20054;-73
2020/12/01 09:50:14;;;;;;;38.28;20.85;;;;;;;4.98;57.67;100710.28;5071736;28;20135;-74
2020/12/01 09:58:41;;;;;;;43.13;21.40;;;;;;;5.44;56.44;100717.69;5051115;28;20570;-73
2020/12/01 10:09:28;;;;;;;36.88;19.05;;;;;;;5.25;56.01;100714.41;5071178;28;20044;-67
2020/12/01 10:17:41;;;;;;;32.58;18.25;;;;;;;5.12;54.91;100711.03;5070838;28;20141;-67
2020/12/01 10:25:56;;;;;;;36.47;19.30;;;;;;;5.69;54.10;100698.34;5058943;28;20063;-67
2020/12/01 10:34:24;;;;;;;34.35;16.27;;;;;;;5.73;54.75;100697.44;5051483;28;20400;-66
2020/12/01 10:36:51;;;;;;;34.65;18.40;;;;;;;5.75;54.27;100697.41;5062936;28;20052;-66
2020/12/01 10:39:19;;;;;;;30.98;16.80;;;;;;;5.76;54.20;100694.78;5062168;28;20040;-67
2020/12/01 10:41:45;;;;;;;31.70;17.27;;;;;;;5.73;54.31;100696.56;5070910;28;20048;-66
2020/12/01 10:44:12;;;;;;;35.20;18.38;;;;;;;5.63;54.49;100702.75;5070714;28;20525;-67
2020/12/01 10:46:39;;;;;;;32.95;17.35;;;;;;;5.76;53.84;100696.53;5070884;28;20718;-67
2020/12/01 10:49:06;;;;;;;31.67;17.85;;;;;;;5.74;53.65;100699.16;5071047;28;20053;-66
2020/12/01 10:51:33;;;;;;;34.67;17.60;;;;;;;5.71;53.60;100706.13;5070506;28;20099;-67
2020/12/01 10:54:00;;;;;;;32.95;17.73;;;;;;;5.45;53.84;100712.47;5070381;28;20500;-68
2020/12/01 10:56:28;;;;;;;30.40;16.48;;;;;;;5.42;54.00;100716.84;5065287;28;20053;-66
2020/12/01 10:58:55;;;;;;;39.10;20.95;;;;;;;5.36;54.27;100711.69;5050671;28;20513;-67
2020/12/01 11:01:21;;;;;;;31.13;16.98;;;;;;;5.27;54.11;100722.19;5065194;28;20060;-68
2020/12/01 11:03:48;;;;;;;35.30;17.42;;;;;;;4.99;54.44;100721.53;5053268;28;20460;-67
2020/12/01 11:06:14;;;;;;;36.30;17.73;;;;;;;4.98;54.42;100731.06;5059232;28;20044;-67
2020/12/01 11:08:40;;;;;;;29.90;14.80;;;;;;;5.08;54.31;100711.94;5050995;28;20068;-67
2020/12/01 11:11:06;;;;;;;27.35;13.77;;;;;;;5.25;53.33;100708.34;5067899;28;20074;-66
2020/12/01 11:13:34;;;;;;;29.98;16.25;;;;;;;5.43;53.16;100711.63;5071076;28;20110;-67
2020/12/01 11:16:01;;;;;;;31.88;16.52;;;;;;;5.61;53.16;100707.09;5073603;28;20079;-67
2020/12/01 11:18:27;;;;;;;30.58;15.93;;;;;;;5.74;52.93;100703.50;5070886;28;20049;-68
2020/12/01 11:20:53;;;;;;;31.90;14.88;;;;;;;5.70;52.60;100705.28;5070639;28;20128;-66
2020/12/01 11:23:19;;;;;;;29.17;16.73;;;;;;;5.84;52.92;100712.94;5059053;28;20045;-66
2020/12/01 11:25:45;;;;;;;30.40;15.55;;;;;;;5.96;52.56;100704.13;5060382;28;20041;-67
2020/12/01 11:28:12;;;;;;;20.17;11.35;;;;;;;6.09;51.98;100705.72;5064266;28;20040;-66
2020/12/01 11:30:39;;;;;;;30.83;16.38;;;;;;;6.06;52.05;100701.41;5068499;28;20163;-69
2020/12/01 11:33:05;;;;;;;32.65;15.20;;;;;;;6.04;52.31;100702.31;5075524;28;20044;-67
2020/12/01 11:35:31;;;;;;;35.80;17.58;;;;;;;6.08;51.65;100706.59;5074984;28;20131;-66
2020/12/01 11:37:57;;;;;;;33.78;17.40;;;;;;;6.17;51.71;100709.06;5074518;28;20056;-67
2020/12/01 11:40:23;;;;;;;29.17;17.00;;;;;;;6.24;51.75;100707.22;5065402;28;20049;-66
2020/12/01 11:42:49;;;;;;;25.38;14.05;;;;;;;6.41;51.21;100713.06;5055112;28;20049;-66
2020/12/01 11:45:15;;;;;;;16.35;9.32;;;;;;;6.29;51.22;100706.31;5064951;28;20063;-66
2020/12/01 11:47:43;;;;;;;31.88;16.73;;;;;;;6.31;50.93;100701.09;5074819;28;20052;-67
2020/12/01 11:50:11;;;;;;;30.55;17.02;;;;;;;6.20;50.53;100714.22;5074223;28;20560;-67
2020/12/01 11:52:37;;;;;;;22.92;10.68;;;;;;;6.21;50.98;100715.94;5074447;28;20118;-67
2020/12/01 11:55:04;;;;;;;31.48;16.90;;;;;;;6.22;51.07;100712.47;5074115;28;20045;-66
2020/12/01 11:57:30;;;;;;;28.67;15.18;;;;;;;6.29;50.43;100714.13;5074336;28;20045;-67
2020/12/01 11:59:56;;;;;;;32.03;17.77;;;;;;;6.35;50.70;100708.81;5074178;28;20148;-67